sensor_id;sensor_type;location;lat;lon;timestamp;P1;durP1;ratioP1;P2;durP2;ratioP2
9860;SDS011;4969;52.304;4.968;2024-01-27T00:00:53;10.23;;;3.60;;
9860;SDS011;4969;52.304;4.968;2024-01-27T00:03:19;11.37;;;4.07;;
9860;SDS011;4969;52.304;4.968;2024-01-27T00:05:47;14.90;;;3.83;;
9860;SDS011;4969;52.304;4.968;2024-01-27T00:08:14;12.03;;;3.67;;
9860;SDS011;4969;52.304;4.968;2024-01-27T00:10:40;13.60;;;3.53;;
9860;SDS011;4969;52.304;4.968;2024-01-27T00:13:07;11.87;;;3.63;;
9860;SDS011;4969;52.304;4.968;2024-01-27T00:15:33;11.33;;;3.60;;
9860;SDS011;4969;52.304;4.968;2024-01-27T00:18:00;14.33;;;3.57;;
9860;SDS011;4969;52.304;4.968;2024-01-27T00:20:27;12.17;;;3.27;;
9860;SDS011;4969;52.304;4.968;2024-01-27T00:22:55;11.97;;;3.23;;
9860;SDS011;4969;52.304;4.968;2024-01-27T00:25:21;11.87;;;3.47;;
9860;SDS011;4969;52.304;4.968;2024-01-27T00:27:48;12.20;;;3.70;;
9860;SDS011;4969;52.304;4.968;2024-01-27T00:30:15;10.87;;;3.80;;
9860;SDS011;4969;52.304;4.968;2024-01-27T00:32:41;12.37;;;3.83;;
9860;SDS011;4969;52.304;4.968;2024-01-27T00:35:08;11.83;;;3.00;;
9860;SDS011;4969;52.304;4.968;2024-01-27T00:37:36;13.23;;;3.63;;
9860;SDS011;4969;52.304;4.968;2024-01-27T00:40:04;10.97;;;3.30;;
9860;SDS011;4969;52.304;4.968;2024-01-27T00:42:34;13.13;;;3.53;;
9860;SDS011;4969;52.304;4.968;2024-01-27T00:45:01;9.03;;;3.40;;
9860;SDS011;4969;52.304;4.968;2024-01-27T00:47:28;10.73;;;3.20;;
9860;SDS011;4969;52.304;4.968;2024-01-27T00:49:54;9.10;;;3.50;;
9860;SDS011;4969;52.304;4.968;2024-01-27T00:52:21;10.63;;;3.73;;
9860;SDS011;4969;52.304;4.968;2024-01-27T00:54:47;7.03;;;3.83;;
9860;SDS011;4969;52.304;4.968;2024-01-27T00:57:15;10.77;;;3.60;;
9860;SDS011;4969;52.304;4.968;2024-01-27T00:59:42;9.73;;;3.37;;
9860;SDS011;4969;52.304;4.968;2024-01-27T01:02:08;12.17;;;3.80;;
9860;SDS011;4969;52.304;4.968;2024-01-27T01:04:35;16.10;;;4.27;;
9860;SDS011;4969;52.304;4.968;2024-01-27T01:07:02;12.97;;;4.00;;
9860;SDS011;4969;52.304;4.968;2024-01-27T01:09:29;13.17;;;3.63;;
9860;SDS011;4969;52.304;4.968;2024-01-27T01:11:55;13.77;;;4.07;;
9860;SDS011;4969;52.304;4.968;2024-01-27T01:14:23;9.87;;;3.50;;
9860;SDS011;4969;52.304;4.968;2024-01-27T01:16:50;12.47;;;3.90;;
9860;SDS011;4969;52.304;4.968;2024-01-27T01:19:16;10.23;;;3.67;;
9860;SDS011;4969;52.304;4.968;2024-01-27T01:21:43;12.50;;;3.50;;
9860;SDS011;4969;52.304;4.968;2024-01-27T01:24:09;12.17;;;3.60;;
9860;SDS011;4969;52.304;4.968;2024-01-27T01:26:36;8.60;;;3.90;;
9860;SDS011;4969;52.304;4.968;2024-01-27T01:29:03;12.97;;;3.93;;
9860;SDS011;4969;52.304;4.968;2024-01-27T01:31:31;8.93;;;3.13;;
9860;SDS011;4969;52.304;4.968;2024-01-27T01:33:57;11.93;;;4.03;;
9860;SDS011;4969;52.304;4.968;2024-01-27T01:36:24;13.30;;;3.83;;
9860;SDS011;4969;52.304;4.968;2024-01-27T01:38:50;9.63;;;3.33;;
9860;SDS011;4969;52.304;4.968;2024-01-27T01:41:17;7.23;;;3.23;;
9860;SDS011;4969;52.304;4.968;2024-01-27T01:43:43;11.53;;;3.87;;
9860;SDS011;4969;52.304;4.968;2024-01-27T01:46:10;14.80;;;3.40;;
9860;SDS011;4969;52.304;4.968;2024-01-27T01:48:38;10.87;;;3.37;;
9860;SDS011;4969;52.304;4.968;2024-01-27T01:51:05;10.70;;;3.73;;
9860;SDS011;4969;52.304;4.968;2024-01-27T01:53:32;11.40;;;3.63;;
9860;SDS011;4969;52.304;4.968;2024-01-27T01:55:58;12.67;;;3.63;;
9860;SDS011;4969;52.304;4.968;2024-01-27T01:58:25;9.50;;;3.50;;
9860;SDS011;4969;52.304;4.968;2024-01-27T02:00:58;9.83;;;3.23;;
9860;SDS011;4969;52.304;4.968;2024-01-27T02:03:25;7.77;;;2.73;;
9860;SDS011;4969;52.304;4.968;2024-01-27T02:05:53;9.37;;;3.20;;
9860;SDS011;4969;52.304;4.968;2024-01-27T02:08:20;12.90;;;3.53;;
9860;SDS011;4969;52.304;4.968;2024-01-27T02:10:47;12.70;;;3.90;;
9860;SDS011;4969;52.304;4.968;2024-01-27T02:13:17;10.50;;;3.50;;
9860;SDS011;4969;52.304;4.968;2024-01-27T02:15:44;11.20;;;3.60;;
9860;SDS011;4969;52.304;4.968;2024-01-27T02:18:11;12.03;;;3.47;;
9860;SDS011;4969;52.304;4.968;2024-01-27T02:20:38;8.53;;;3.03;;
9860;SDS011;4969;52.304;4.968;2024-01-27T02:23:06;11.43;;;3.27;;
9860;SDS011;4969;52.304;4.968;2024-01-27T02:25:34;10.40;;;3.20;;
9860;SDS011;4969;52.304;4.968;2024-01-27T02:28:01;11.33;;;3.50;;
9860;SDS011;4969;52.304;4.968;2024-01-27T02:30:28;11.30;;;3.60;;
9860;SDS011;4969;52.304;4.968;2024-01-27T02:32:55;10.17;;;3.40;;
9860;SDS011;4969;52.304;4.968;2024-01-27T02:35:22;11.80;;;3.73;;
9860;SDS011;4969;52.304;4.968;2024-01-27T02:37:48;16.03;;;3.90;;
9860;SDS011;4969;52.304;4.968;2024-01-27T02:40:15;11.00;;;3.33;;
9860;SDS011;4969;52.304;4.968;2024-01-27T02:42:43;9.90;;;3.07;;
9860;SDS011;4969;52.304;4.968;2024-01-27T02:45:10;10.13;;;3.17;;
9860;SDS011;4969;52.304;4.968;2024-01-27T02:47:37;12.93;;;3.50;;
9860;SDS011;4969;52.304;4.968;2024-01-27T02:50:03;7.63;;;3.33;;
9860;SDS011;4969;52.304;4.968;2024-01-27T02:52:31;12.00;;;3.10;;
9860;SDS011;4969;52.304;4.968;2024-01-27T02:54:57;10.97;;;2.93;;
9860;SDS011;4969;52.304;4.968;2024-01-27T02:57:24;11.37;;;3.30;;
9860;SDS011;4969;52.304;4.968;2024-01-27T02:59:52;12.53;;;4.37;;
9860;SDS011;4969;52.304;4.968;2024-01-27T03:02:19;10.07;;;3.33;;
9860;SDS011;4969;52.304;4.968;2024-01-27T03:04:45;9.37;;;3.23;;
9860;SDS011;4969;52.304;4.968;2024-01-27T03:07:12;10.37;;;3.17;;
9860;SDS011;4969;52.304;4.968;2024-01-27T03:09:38;9.03;;;3.10;;
9860;SDS011;4969;52.304;4.968;2024-01-27T03:12:05;9.90;;;3.17;;
9860;SDS011;4969;52.304;4.968;2024-01-27T03:14:32;8.20;;;3.30;;
9860;SDS011;4969;52.304;4.968;2024-01-27T03:17:00;9.93;;;3.77;;
9860;SDS011;4969;52.304;4.968;2024-01-27T03:19:27;12.13;;;3.20;;
9860;SDS011;4969;52.304;4.968;2024-01-27T03:21:53;10.00;;;2.87;;
9860;SDS011;4969;52.304;4.968;2024-01-27T03:24:20;9.27;;;3.30;;
9860;SDS011;4969;52.304;4.968;2024-01-27T03:26:46;13.23;;;3.80;;
9860;SDS011;4969;52.304;4.968;2024-01-27T03:29:13;11.53;;;3.70;;
9860;SDS011;4969;52.304;4.968;2024-01-27T03:31:40;12.30;;;3.67;;
9860;SDS011;4969;52.304;4.968;2024-01-27T03:34:07;9.67;;;3.00;;
9860;SDS011;4969;52.304;4.968;2024-01-27T03:36:34;13.43;;;3.77;;
9860;SDS011;4969;52.304;4.968;2024-01-27T03:39:01;9.47;;;3.30;;
9860;SDS011;4969;52.304;4.968;2024-01-27T03:41:28;11.97;;;3.47;;
9860;SDS011;4969;52.304;4.968;2024-01-27T03:43:55;12.43;;;3.30;;
9860;SDS011;4969;52.304;4.968;2024-01-27T03:46:21;10.97;;;3.53;;
9860;SDS011;4969;52.304;4.968;2024-01-27T03:48:48;11.10;;;3.50;;
9860;SDS011;4969;52.304;4.968;2024-01-27T03:51:15;8.20;;;3.03;;
9860;SDS011;4969;52.304;4.968;2024-01-27T03:53:42;11.67;;;4.13;;
9860;SDS011;4969;52.304;4.968;2024-01-27T03:56:11;13.60;;;3.47;;
9860;SDS011;4969;52.304;4.968;2024-01-27T03:58:37;9.47;;;3.13;;
9860;SDS011;4969;52.304;4.968;2024-01-27T04:01:04;10.50;;;2.90;;
9860;SDS011;4969;52.304;4.968;2024-01-27T04:03:31;10.30;;;3.03;;
9860;SDS011;4969;52.304;4.968;2024-01-27T04:05:57;9.40;;;3.23;;
9860;SDS011;4969;52.304;4.968;2024-01-27T04:08:28;14.53;;;4.23;;
9860;SDS011;4969;52.304;4.968;2024-01-27T04:10:55;9.20;;;3.10;;
9860;SDS011;4969;52.304;4.968;2024-01-27T04:13:21;6.27;;;2.90;;
9860;SDS011;4969;52.304;4.968;2024-01-27T04:15:48;10.87;;;3.30;;
9860;SDS011;4969;52.304;4.968;2024-01-27T04:18:16;14.03;;;3.50;;
9860;SDS011;4969;52.304;4.968;2024-01-27T04:20:43;12.27;;;3.10;;
9860;SDS011;4969;52.304;4.968;2024-01-27T04:23:10;9.83;;;3.50;;
9860;SDS011;4969;52.304;4.968;2024-01-27T04:25:39;9.20;;;3.13;;
9860;SDS011;4969;52.304;4.968;2024-01-27T04:28:06;8.07;;;2.80;;
9860;SDS011;4969;52.304;4.968;2024-01-27T04:30:34;8.00;;;3.00;;
9860;SDS011;4969;52.304;4.968;2024-01-27T04:33:00;8.97;;;3.17;;
9860;SDS011;4969;52.304;4.968;2024-01-27T04:35:27;10.70;;;3.60;;
9860;SDS011;4969;52.304;4.968;2024-01-27T04:37:54;8.00;;;2.97;;
9860;SDS011;4969;52.304;4.968;2024-01-27T04:40:20;9.37;;;2.87;;
9860;SDS011;4969;52.304;4.968;2024-01-27T04:42:48;7.37;;;2.87;;
9860;SDS011;4969;52.304;4.968;2024-01-27T04:45:15;8.23;;;2.50;;
9860;SDS011;4969;52.304;4.968;2024-01-27T04:47:41;10.13;;;3.27;;
9860;SDS011;4969;52.304;4.968;2024-01-27T04:50:08;8.40;;;2.67;;
9860;SDS011;4969;52.304;4.968;2024-01-27T04:52:35;9.83;;;3.20;;
9860;SDS011;4969;52.304;4.968;2024-01-27T04:55:01;8.87;;;2.83;;
9860;SDS011;4969;52.304;4.968;2024-01-27T04:57:28;8.03;;;2.90;;
9860;SDS011;4969;52.304;4.968;2024-01-27T04:59:56;9.67;;;2.70;;
9860;SDS011;4969;52.304;4.968;2024-01-27T05:02:23;10.20;;;2.83;;
9860;SDS011;4969;52.304;4.968;2024-01-27T05:04:49;7.77;;;2.77;;
9860;SDS011;4969;52.304;4.968;2024-01-27T05:07:16;7.83;;;3.13;;
9860;SDS011;4969;52.304;4.968;2024-01-27T05:09:42;8.63;;;2.90;;
9860;SDS011;4969;52.304;4.968;2024-01-27T05:12:09;7.00;;;2.60;;
9860;SDS011;4969;52.304;4.968;2024-01-27T05:14:35;8.17;;;2.80;;
9860;SDS011;4969;52.304;4.968;2024-01-27T05:17:03;9.27;;;2.90;;
9860;SDS011;4969;52.304;4.968;2024-01-27T05:19:30;8.03;;;2.70;;
9860;SDS011;4969;52.304;4.968;2024-01-27T05:21:56;8.70;;;2.73;;
9860;SDS011;4969;52.304;4.968;2024-01-27T05:24:23;6.13;;;2.83;;
9860;SDS011;4969;52.304;4.968;2024-01-27T05:26:49;5.47;;;2.43;;
9860;SDS011;4969;52.304;4.968;2024-01-27T05:29:16;11.47;;;3.20;;
9860;SDS011;4969;52.304;4.968;2024-01-27T05:31:42;10.83;;;3.00;;
9860;SDS011;4969;52.304;4.968;2024-01-27T05:34:10;7.83;;;3.03;;
9860;SDS011;4969;52.304;4.968;2024-01-27T05:36:37;11.57;;;3.70;;
9860;SDS011;4969;52.304;4.968;2024-01-27T05:39:04;8.03;;;3.10;;
9860;SDS011;4969;52.304;4.968;2024-01-27T05:41:31;9.37;;;3.33;;
9860;SDS011;4969;52.304;4.968;2024-01-27T05:43:58;12.10;;;3.33;;
9860;SDS011;4969;52.304;4.968;2024-01-27T05:46:25;8.63;;;3.50;;
9860;SDS011;4969;52.304;4.968;2024-01-27T05:48:52;6.87;;;3.27;;
9860;SDS011;4969;52.304;4.968;2024-01-27T05:51:24;10.83;;;3.63;;
9860;SDS011;4969;52.304;4.968;2024-01-27T05:53:50;9.50;;;3.63;;
9860;SDS011;4969;52.304;4.968;2024-01-27T05:56:17;9.73;;;3.53;;
9860;SDS011;4969;52.304;4.968;2024-01-27T05:58:45;5.70;;;3.20;;
9860;SDS011;4969;52.304;4.968;2024-01-27T06:01:12;8.80;;;3.33;;
9860;SDS011;4969;52.304;4.968;2024-01-27T06:03:40;9.83;;;3.73;;
9860;SDS011;4969;52.304;4.968;2024-01-27T06:06:07;9.97;;;3.80;;
9860;SDS011;4969;52.304;4.968;2024-01-27T06:08:35;7.77;;;3.90;;
9860;SDS011;4969;52.304;4.968;2024-01-27T06:11:02;13.33;;;4.30;;
9860;SDS011;4969;52.304;4.968;2024-01-27T06:13:29;8.77;;;4.03;;
9860;SDS011;4969;52.304;4.968;2024-01-27T06:15:57;12.23;;;4.60;;
9860;SDS011;4969;52.304;4.968;2024-01-27T06:18:24;10.67;;;4.60;;
9860;SDS011;4969;52.304;4.968;2024-01-27T06:20:51;8.73;;;3.87;;
9860;SDS011;4969;52.304;4.968;2024-01-27T06:23:17;9.60;;;4.17;;
9860;SDS011;4969;52.304;4.968;2024-01-27T06:25:45;8.17;;;3.87;;
9860;SDS011;4969;52.304;4.968;2024-01-27T06:28:11;6.87;;;3.80;;
9860;SDS011;4969;52.304;4.968;2024-01-27T06:30:38;8.87;;;4.70;;
9860;SDS011;4969;52.304;4.968;2024-01-27T06:33:05;10.73;;;5.17;;
9860;SDS011;4969;52.304;4.968;2024-01-27T06:35:31;8.97;;;4.73;;
9860;SDS011;4969;52.304;4.968;2024-01-27T06:37:58;9.37;;;4.73;;
9860;SDS011;4969;52.304;4.968;2024-01-27T06:40:25;9.60;;;5.13;;
9860;SDS011;4969;52.304;4.968;2024-01-27T06:42:53;11.53;;;5.10;;
9860;SDS011;4969;52.304;4.968;2024-01-27T06:45:19;11.40;;;4.93;;
9860;SDS011;4969;52.304;4.968;2024-01-27T06:47:46;13.97;;;5.63;;
9860;SDS011;4969;52.304;4.968;2024-01-27T06:50:12;11.33;;;5.37;;
9860;SDS011;4969;52.304;4.968;2024-01-27T06:52:40;11.17;;;5.00;;
9860;SDS011;4969;52.304;4.968;2024-01-27T06:55:06;8.83;;;4.63;;
9860;SDS011;4969;52.304;4.968;2024-01-27T06:57:35;15.33;;;4.60;;
9860;SDS011;4969;52.304;4.968;2024-01-27T07:00:04;7.97;;;4.37;;
9860;SDS011;4969;52.304;4.968;2024-01-27T07:02:31;9.47;;;4.33;;
9860;SDS011;4969;52.304;4.968;2024-01-27T07:04:58;12.43;;;4.93;;
9860;SDS011;4969;52.304;4.968;2024-01-27T07:07:25;11.83;;;5.27;;
9860;SDS011;4969;52.304;4.968;2024-01-27T07:09:52;10.07;;;4.87;;
9860;SDS011;4969;52.304;4.968;2024-01-27T07:12:20;12.00;;;5.00;;
9860;SDS011;4969;52.304;4.968;2024-01-27T07:14:47;13.90;;;5.63;;
9860;SDS011;4969;52.304;4.968;2024-01-27T07:17:15;10.00;;;4.53;;
9860;SDS011;4969;52.304;4.968;2024-01-27T07:19:41;12.03;;;5.60;;
9860;SDS011;4969;52.304;4.968;2024-01-27T07:22:08;10.03;;;4.87;;
9860;SDS011;4969;52.304;4.968;2024-01-27T07:24:35;11.87;;;5.37;;
9860;SDS011;4969;52.304;4.968;2024-01-27T07:27:02;9.40;;;5.43;;
9860;SDS011;4969;52.304;4.968;2024-01-27T07:29:29;9.33;;;5.50;;
9860;SDS011;4969;52.304;4.968;2024-01-27T07:31:56;10.23;;;5.03;;
9860;SDS011;4969;52.304;4.968;2024-01-27T07:34:24;10.50;;;4.77;;
9860;SDS011;4969;52.304;4.968;2024-01-27T07:36:50;8.90;;;4.90;;
9860;SDS011;4969;52.304;4.968;2024-01-27T07:39:17;10.33;;;5.10;;
9860;SDS011;4969;52.304;4.968;2024-01-27T07:41:43;14.17;;;6.10;;
9860;SDS011;4969;52.304;4.968;2024-01-27T07:44:10;7.87;;;4.83;;
9860;SDS011;4969;52.304;4.968;2024-01-27T07:46:37;11.90;;;5.43;;
9860;SDS011;4969;52.304;4.968;2024-01-27T07:49:05;11.90;;;5.37;;
9860;SDS011;4969;52.304;4.968;2024-01-27T07:51:33;8.40;;;4.33;;
9860;SDS011;4969;52.304;4.968;2024-01-27T07:54:00;9.13;;;5.23;;
9860;SDS011;4969;52.304;4.968;2024-01-27T07:56:27;9.27;;;5.60;;
9860;SDS011;4969;52.304;4.968;2024-01-27T07:58:54;14.40;;;5.63;;
9860;SDS011;4969;52.304;4.968;2024-01-27T08:01:20;13.73;;;5.10;;
9860;SDS011;4969;52.304;4.968;2024-01-27T08:03:47;10.03;;;4.83;;
9860;SDS011;4969;52.304;4.968;2024-01-27T08:06:15;10.37;;;5.00;;
9860;SDS011;4969;52.304;4.968;2024-01-27T08:08:45;9.77;;;4.90;;
9860;SDS011;4969;52.304;4.968;2024-01-27T08:11:12;10.47;;;5.07;;
9860;SDS011;4969;52.304;4.968;2024-01-27T08:13:39;10.00;;;4.63;;
9860;SDS011;4969;52.304;4.968;2024-01-27T08:16:06;11.60;;;5.37;;
9860;SDS011;4969;52.304;4.968;2024-01-27T08:18:34;10.40;;;5.40;;
9860;SDS011;4969;52.304;4.968;2024-01-27T08:21:01;8.73;;;4.53;;
9860;SDS011;4969;52.304;4.968;2024-01-27T08:23:28;8.37;;;5.20;;
9860;SDS011;4969;52.304;4.968;2024-01-27T08:25:56;9.47;;;4.67;;
9860;SDS011;4969;52.304;4.968;2024-01-27T08:28:23;11.40;;;4.63;;
9860;SDS011;4969;52.304;4.968;2024-01-27T08:30:50;10.50;;;5.57;;
9860;SDS011;4969;52.304;4.968;2024-01-27T08:33:17;10.57;;;5.73;;
9860;SDS011;4969;52.304;4.968;2024-01-27T08:35:45;10.87;;;4.93;;
9860;SDS011;4969;52.304;4.968;2024-01-27T08:38:12;9.13;;;4.80;;
9860;SDS011;4969;52.304;4.968;2024-01-27T08:40:39;11.67;;;5.23;;
9860;SDS011;4969;52.304;4.968;2024-01-27T08:43:07;10.00;;;5.33;;
9860;SDS011;4969;52.304;4.968;2024-01-27T08:45:35;7.30;;;4.47;;
9860;SDS011;4969;52.304;4.968;2024-01-27T08:48:02;8.83;;;4.97;;
9860;SDS011;4969;52.304;4.968;2024-01-27T08:50:28;12.67;;;5.60;;
9860;SDS011;4969;52.304;4.968;2024-01-27T08:52:55;9.87;;;4.77;;
9860;SDS011;4969;52.304;4.968;2024-01-27T08:55:21;9.37;;;5.03;;
9860;SDS011;4969;52.304;4.968;2024-01-27T08:57:49;9.60;;;4.57;;
9860;SDS011;4969;52.304;4.968;2024-01-27T09:00:17;7.37;;;4.53;;
9860;SDS011;4969;52.304;4.968;2024-01-27T09:02:44;10.93;;;4.83;;
9860;SDS011;4969;52.304;4.968;2024-01-27T09:05:12;9.10;;;4.83;;
9860;SDS011;4969;52.304;4.968;2024-01-27T09:07:39;12.13;;;5.40;;
9860;SDS011;4969;52.304;4.968;2024-01-27T09:10:06;15.83;;;5.63;;
9860;SDS011;4969;52.304;4.968;2024-01-27T09:12:33;12.10;;;5.87;;
9860;SDS011;4969;52.304;4.968;2024-01-27T09:14:59;10.10;;;5.43;;
9860;SDS011;4969;52.304;4.968;2024-01-27T09:17:27;6.57;;;4.20;;
9860;SDS011;4969;52.304;4.968;2024-01-27T09:19:54;8.97;;;5.43;;
9860;SDS011;4969;52.304;4.968;2024-01-27T09:22:20;10.30;;;5.57;;
9860;SDS011;4969;52.304;4.968;2024-01-27T09:24:47;9.73;;;4.93;;
9860;SDS011;4969;52.304;4.968;2024-01-27T09:27:14;9.57;;;4.63;;
9860;SDS011;4969;52.304;4.968;2024-01-27T09:29:40;8.13;;;5.40;;
9860;SDS011;4969;52.304;4.968;2024-01-27T09:32:07;10.50;;;4.70;;
9860;SDS011;4969;52.304;4.968;2024-01-27T09:34:35;10.17;;;4.93;;
9860;SDS011;4969;52.304;4.968;2024-01-27T09:37:01;9.07;;;5.50;;
9860;SDS011;4969;52.304;4.968;2024-01-27T09:39:28;13.17;;;6.00;;
9860;SDS011;4969;52.304;4.968;2024-01-27T09:41:55;9.97;;;5.10;;
9860;SDS011;4969;52.304;4.968;2024-01-27T09:44:24;9.37;;;4.60;;
9860;SDS011;4969;52.304;4.968;2024-01-27T09:46:52;11.70;;;5.43;;
9860;SDS011;4969;52.304;4.968;2024-01-27T09:49:20;12.03;;;5.20;;
9860;SDS011;4969;52.304;4.968;2024-01-27T09:51:48;11.80;;;5.47;;
9860;SDS011;4969;52.304;4.968;2024-01-27T09:54:15;9.30;;;5.00;;
9860;SDS011;4969;52.304;4.968;2024-01-27T09:56:42;11.13;;;4.90;;
9860;SDS011;4969;52.304;4.968;2024-01-27T09:59:12;9.73;;;5.43;;
9860;SDS011;4969;52.304;4.968;2024-01-27T10:01:40;8.20;;;5.10;;
9860;SDS011;4969;52.304;4.968;2024-01-27T10:04:07;10.23;;;5.13;;
9860;SDS011;4969;52.304;4.968;2024-01-27T10:06:34;12.37;;;5.23;;
9860;SDS011;4969;52.304;4.968;2024-01-27T10:09:02;10.00;;;5.40;;
9860;SDS011;4969;52.304;4.968;2024-01-27T10:11:29;12.85;;;5.50;;
9860;SDS011;4969;52.304;4.968;2024-01-27T10:13:58;13.05;;;5.68;;
9860;SDS011;4969;52.304;4.968;2024-01-27T10:16:25;13.65;;;4.72;;
9860;SDS011;4969;52.304;4.968;2024-01-27T10:18:58;9.40;;;4.43;;
9860;SDS011;4969;52.304;4.968;2024-01-27T10:21:26;10.27;;;4.82;;
9860;SDS011;4969;52.304;4.968;2024-01-27T10:23:52;9.93;;;4.53;;
9860;SDS011;4969;52.304;4.968;2024-01-27T10:26:20;10.27;;;5.43;;
9860;SDS011;4969;52.304;4.968;2024-01-27T10:28:51;11.07;;;5.15;;
9860;SDS011;4969;52.304;4.968;2024-01-27T10:31:18;10.95;;;5.75;;
9860;SDS011;4969;52.304;4.968;2024-01-27T10:33:51;10.13;;;5.38;;
9860;SDS011;4969;52.304;4.968;2024-01-27T10:36:18;9.95;;;4.63;;
9860;SDS011;4969;52.304;4.968;2024-01-27T10:38:45;10.18;;;4.50;;
9860;SDS011;4969;52.304;4.968;2024-01-27T10:41:11;6.93;;;3.83;;
9860;SDS011;4969;52.304;4.968;2024-01-27T10:43:47;11.05;;;4.68;;
9860;SDS011;4969;52.304;4.968;2024-01-27T10:46:16;9.02;;;4.88;;
9860;SDS011;4969;52.304;4.968;2024-01-27T10:48:45;9.60;;;4.65;;
9860;SDS011;4969;52.304;4.968;2024-01-27T10:51:16;11.70;;;4.95;;
9860;SDS011;4969;52.304;4.968;2024-01-27T10:53:49;8.40;;;4.80;;
9860;SDS011;4969;52.304;4.968;2024-01-27T10:56:18;14.00;;;5.90;;
9860;SDS011;4969;52.304;4.968;2024-01-27T10:58:45;13.10;;;4.72;;
9860;SDS011;4969;52.304;4.968;2024-01-27T11:01:16;9.23;;;4.00;;
9860;SDS011;4969;52.304;4.968;2024-01-27T11:03:47;9.80;;;4.57;;
9860;SDS011;4969;52.304;4.968;2024-01-27T11:06:16;7.85;;;4.18;;
9860;SDS011;4969;52.304;4.968;2024-01-27T11:08:46;11.70;;;4.90;;
9860;SDS011;4969;52.304;4.968;2024-01-27T11:11:13;8.48;;;4.18;;
9860;SDS011;4969;52.304;4.968;2024-01-27T11:13:40;8.13;;;3.85;;
9860;SDS011;4969;52.304;4.968;2024-01-27T11:16:13;12.95;;;5.03;;
9860;SDS011;4969;52.304;4.968;2024-01-27T11:18:43;12.63;;;5.30;;
9860;SDS011;4969;52.304;4.968;2024-01-27T11:21:12;9.27;;;4.95;;
9860;SDS011;4969;52.304;4.968;2024-01-27T11:23:40;12.20;;;5.15;;
9860;SDS011;4969;52.304;4.968;2024-01-27T11:26:06;11.55;;;4.65;;
9860;SDS011;4969;52.304;4.968;2024-01-27T11:28:34;9.50;;;4.00;;
9860;SDS011;4969;52.304;4.968;2024-01-27T11:31:03;7.75;;;4.03;;
9860;SDS011;4969;52.304;4.968;2024-01-27T11:33:31;11.35;;;5.28;;
9860;SDS011;4969;52.304;4.968;2024-01-27T11:36:01;16.70;;;5.18;;
9860;SDS011;4969;52.304;4.968;2024-01-27T11:38:29;9.30;;;4.55;;
9860;SDS011;4969;52.304;4.968;2024-01-27T11:40:56;9.80;;;4.38;;
9860;SDS011;4969;52.304;4.968;2024-01-27T11:43:23;11.20;;;4.43;;
9860;SDS011;4969;52.304;4.968;2024-01-27T11:45:56;8.70;;;4.32;;
9860;SDS011;4969;52.304;4.968;2024-01-27T11:48:23;10.32;;;4.60;;
9860;SDS011;4969;52.304;4.968;2024-01-27T11:51:03;11.32;;;4.85;;
9860;SDS011;4969;52.304;4.968;2024-01-27T11:53:30;11.53;;;4.60;;
9860;SDS011;4969;52.304;4.968;2024-01-27T11:55:57;10.60;;;4.50;;
9860;SDS011;4969;52.304;4.968;2024-01-27T11:58:24;10.77;;;4.23;;
9860;SDS011;4969;52.304;4.968;2024-01-27T12:00:50;11.50;;;4.47;;
9860;SDS011;4969;52.304;4.968;2024-01-27T12:03:18;9.95;;;4.50;;
9860;SDS011;4969;52.304;4.968;2024-01-27T12:05:44;9.27;;;3.78;;
9860;SDS011;4969;52.304;4.968;2024-01-27T12:08:12;10.63;;;5.00;;
9860;SDS011;4969;52.304;4.968;2024-01-27T12:10:39;14.03;;;4.17;;
9860;SDS011;4969;52.304;4.968;2024-01-27T12:13:06;9.87;;;4.70;;
9860;SDS011;4969;52.304;4.968;2024-01-27T12:15:32;11.70;;;4.50;;
9860;SDS011;4969;52.304;4.968;2024-01-27T12:17:59;15.25;;;4.95;;
9860;SDS011;4969;52.304;4.968;2024-01-27T12:20:25;11.03;;;3.97;;
9860;SDS011;4969;52.304;4.968;2024-01-27T12:23:01;10.25;;;3.78;;
9860;SDS011;4969;52.304;4.968;2024-01-27T12:25:29;10.63;;;4.05;;
9860;SDS011;4969;52.304;4.968;2024-01-27T12:27:56;9.70;;;4.40;;
9860;SDS011;4969;52.304;4.968;2024-01-27T12:30:25;7.77;;;3.63;;
9860;SDS011;4969;52.304;4.968;2024-01-27T12:32:52;11.18;;;4.32;;
9860;SDS011;4969;52.304;4.968;2024-01-27T12:35:19;10.73;;;4.03;;
9860;SDS011;4969;52.304;4.968;2024-01-27T12:37:46;10.60;;;4.10;;
9860;SDS011;4969;52.304;4.968;2024-01-27T12:40:19;11.87;;;4.07;;
9860;SDS011;4969;52.304;4.968;2024-01-27T12:42:48;11.17;;;4.47;;
9860;SDS011;4969;52.304;4.968;2024-01-27T12:45:15;13.20;;;4.90;;
9860;SDS011;4969;52.304;4.968;2024-01-27T12:47:41;9.43;;;4.33;;
9860;SDS011;4969;52.304;4.968;2024-01-27T12:50:08;10.43;;;4.27;;
9860;SDS011;4969;52.304;4.968;2024-01-27T12:52:35;10.23;;;4.30;;
9860;SDS011;4969;52.304;4.968;2024-01-27T12:55:03;13.90;;;4.80;;
9860;SDS011;4969;52.304;4.968;2024-01-27T12:57:30;12.90;;;4.47;;
9860;SDS011;4969;52.304;4.968;2024-01-27T12:59:58;12.47;;;4.17;;
9860;SDS011;4969;52.304;4.968;2024-01-27T13:02:25;10.83;;;4.00;;
9860;SDS011;4969;52.304;4.968;2024-01-27T13:04:51;9.33;;;3.97;;
9860;SDS011;4969;52.304;4.968;2024-01-27T13:07:18;10.67;;;3.70;;
9860;SDS011;4969;52.304;4.968;2024-01-27T13:09:45;10.20;;;4.30;;
9860;SDS011;4969;52.304;4.968;2024-01-27T13:12:11;10.13;;;4.10;;
9860;SDS011;4969;52.304;4.968;2024-01-27T13:14:38;11.00;;;4.00;;
9860;SDS011;4969;52.304;4.968;2024-01-27T13:17:06;9.40;;;3.40;;
9860;SDS011;4969;52.304;4.968;2024-01-27T13:19:33;11.93;;;3.60;;
9860;SDS011;4969;52.304;4.968;2024-01-27T13:22:00;10.07;;;4.30;;
9860;SDS011;4969;52.304;4.968;2024-01-27T13:24:27;7.93;;;3.60;;
9860;SDS011;4969;52.304;4.968;2024-01-27T13:26:54;12.33;;;4.50;;
9860;SDS011;4969;52.304;4.968;2024-01-27T13:29:21;11.57;;;4.37;;
9860;SDS011;4969;52.304;4.968;2024-01-27T13:31:48;10.60;;;3.83;;
9860;SDS011;4969;52.304;4.968;2024-01-27T13:34:16;9.87;;;4.23;;
9860;SDS011;4969;52.304;4.968;2024-01-27T13:36:42;12.40;;;4.30;;
9860;SDS011;4969;52.304;4.968;2024-01-27T13:39:09;10.93;;;4.60;;
9860;SDS011;4969;52.304;4.968;2024-01-27T13:41:36;9.60;;;4.67;;
9860;SDS011;4969;52.304;4.968;2024-01-27T13:44:03;15.63;;;4.90;;
9860;SDS011;4969;52.304;4.968;2024-01-27T13:46:30;8.60;;;4.07;;
9860;SDS011;4969;52.304;4.968;2024-01-27T13:48:57;9.50;;;4.07;;
9860;SDS011;4969;52.304;4.968;2024-01-27T13:51:25;10.10;;;4.57;;
9860;SDS011;4969;52.304;4.968;2024-01-27T13:53:52;12.20;;;5.10;;
9860;SDS011;4969;52.304;4.968;2024-01-27T13:56:19;10.03;;;4.13;;
9860;SDS011;4969;52.304;4.968;2024-01-27T13:58:45;12.17;;;4.73;;
9860;SDS011;4969;52.304;4.968;2024-01-27T14:01:12;9.00;;;4.10;;
9860;SDS011;4969;52.304;4.968;2024-01-27T14:03:39;10.07;;;4.07;;
9860;SDS011;4969;52.304;4.968;2024-01-27T14:06:05;13.25;;;5.10;;
9860;SDS011;4969;52.304;4.968;2024-01-27T14:08:38;13.15;;;4.85;;
9860;SDS011;4969;52.304;4.968;2024-01-27T14:11:05;13.35;;;5.00;;
9860;SDS011;4969;52.304;4.968;2024-01-27T14:13:32;10.30;;;4.55;;
9860;SDS011;4969;52.304;4.968;2024-01-27T14:15:58;11.70;;;5.30;;
9860;SDS011;4969;52.304;4.968;2024-01-27T14:18:25;10.13;;;4.35;;
9860;SDS011;4969;52.304;4.968;2024-01-27T14:20:51;15.55;;;4.93;;
9860;SDS011;4969;52.304;4.968;2024-01-27T14:23:18;17.02;;;4.80;;
9860;SDS011;4969;52.304;4.968;2024-01-27T14:25:46;9.55;;;4.20;;
9860;SDS011;4969;52.304;4.968;2024-01-27T14:28:12;9.05;;;4.32;;
9860;SDS011;4969;52.304;4.968;2024-01-27T14:30:39;13.60;;;5.32;;
9860;SDS011;4969;52.304;4.968;2024-01-27T14:33:06;13.50;;;5.03;;
9860;SDS011;4969;52.304;4.968;2024-01-27T14:35:32;9.65;;;4.95;;
9860;SDS011;4969;52.304;4.968;2024-01-27T14:37:59;10.40;;;4.30;;
9860;SDS011;4969;52.304;4.968;2024-01-27T14:40:26;13.90;;;4.97;;
9860;SDS011;4969;52.304;4.968;2024-01-27T14:42:54;10.85;;;4.38;;
9860;SDS011;4969;52.304;4.968;2024-01-27T14:45:21;12.95;;;4.85;;
9860;SDS011;4969;52.304;4.968;2024-01-27T14:47:48;11.90;;;4.20;;
9860;SDS011;4969;52.304;4.968;2024-01-27T14:50:14;14.40;;;5.57;;
9860;SDS011;4969;52.304;4.968;2024-01-27T14:52:41;8.80;;;4.27;;
9860;SDS011;4969;52.304;4.968;2024-01-27T14:55:08;11.73;;;4.67;;
9860;SDS011;4969;52.304;4.968;2024-01-27T14:57:37;12.73;;;4.30;;
9860;SDS011;4969;52.304;4.968;2024-01-27T15:00:06;14.33;;;4.77;;
9860;SDS011;4969;52.304;4.968;2024-01-27T15:02:33;15.93;;;5.35;;
9860;SDS011;4969;52.304;4.968;2024-01-27T15:05:00;13.18;;;4.80;;
9860;SDS011;4969;52.304;4.968;2024-01-27T15:07:26;13.57;;;5.18;;